sensor_id;sensor_type;location;lat;lon;timestamp;P1;durP1;ratioP1;P2;durP2;ratioP2
79570;SDS011;69034;49.444;7.758;2023-07-29T00:02:47;3.25;;;1.10;;
79570;SDS011;69034;49.444;7.758;2023-07-29T00:06:47;2.90;;;1.10;;
79570;SDS011;69034;49.444;7.758;2023-07-29T00:10:48;2.22;;;1.10;;
79570;SDS011;69034;49.444;7.758;2023-07-29T00:14:49;2.78;;;0.93;;
79570;SDS011;69034;49.444;7.758;2023-07-29T00:18:51;2.22;;;1.00;;
79570;SDS011;69034;49.444;7.758;2023-07-29T00:22:52;2.70;;;0.93;;
79570;SDS011;69034;49.444;7.758;2023-07-29T00:26:58;2.90;;;1.20;;
79570;SDS011;69034;49.444;7.758;2023-07-29T00:30:58;1.90;;;0.82;;
79570;SDS011;69034;49.444;7.758;2023-07-29T00:34:59;3.08;;;1.17;;
79570;SDS011;69034;49.444;7.758;2023-07-29T00:39:00;2.65;;;1.08;;
79570;SDS011;69034;49.444;7.758;2023-07-29T00:43:01;2.20;;;0.95;;
79570;SDS011;69034;49.444;7.758;2023-07-29T00:47:02;4.32;;;1.25;;
79570;SDS011;69034;49.444;7.758;2023-07-29T00:51:06;4.05;;;1.42;;
79570;SDS011;69034;49.444;7.758;2023-07-29T00:55:08;2.92;;;1.15;;
79570;SDS011;69034;49.444;7.758;2023-07-29T00:59:09;4.90;;;1.80;;
79570;SDS011;69034;49.444;7.758;2023-07-29T01:03:09;3.03;;;1.10;;
79570;SDS011;69034;49.444;7.758;2023-07-29T01:11:23;2.50;;;1.00;;
79570;SDS011;69034;49.444;7.758;2023-07-29T01:24:11;2.88;;;0.95;;
79570;SDS011;69034;49.444;7.758;2023-07-29T01:28:11;2.38;;;0.90;;
79570;SDS011;69034;49.444;7.758;2023-07-29T01:36:39;1.83;;;0.70;;
79570;SDS011;69034;49.444;7.758;2023-07-29T01:40:43;2.20;;;0.95;;
79570;SDS011;69034;49.444;7.758;2023-07-29T01:44:44;2.10;;;0.88;;
79570;SDS011;69034;49.444;7.758;2023-07-29T01:48:45;3.05;;;1.02;;
79570;SDS011;69034;49.444;7.758;2023-07-29T01:52:45;3.35;;;1.17;;
79570;SDS011;69034;49.444;7.758;2023-07-29T01:56:46;2.22;;;0.93;;
79570;SDS011;69034;49.444;7.758;2023-07-29T02:00:47;1.80;;;0.63;;
79570;SDS011;69034;49.444;7.758;2023-07-29T02:04:48;2.50;;;0.90;;
79570;SDS011;69034;49.444;7.758;2023-07-29T02:08:51;2.20;;;0.80;;
79570;SDS011;69034;49.444;7.758;2023-07-29T02:12:52;2.05;;;0.80;;
79570;SDS011;69034;49.444;7.758;2023-07-29T02:16:53;3.05;;;0.80;;
79570;SDS011;69034;49.444;7.758;2023-07-29T02:20:54;3.38;;;0.82;;
79570;SDS011;69034;49.444;7.758;2023-07-29T02:24:54;2.80;;;0.80;;
79570;SDS011;69034;49.444;7.758;2023-07-29T02:28:55;1.80;;;0.55;;
79570;SDS011;69034;49.444;7.758;2023-07-29T02:32:56;2.03;;;0.80;;
79570;SDS011;69034;49.444;7.758;2023-07-29T02:36:56;2.60;;;0.82;;
79570;SDS011;69034;49.444;7.758;2023-07-29T02:40:57;1.80;;;0.70;;
79570;SDS011;69034;49.444;7.758;2023-07-29T02:44:57;2.33;;;0.80;;
79570;SDS011;69034;49.444;7.758;2023-07-29T02:48:58;3.15;;;0.75;;
79570;SDS011;69034;49.444;7.758;2023-07-29T02:52:59;2.17;;;0.73;;
79570;SDS011;69034;49.444;7.758;2023-07-29T02:57:02;1.55;;;0.52;;
79570;SDS011;69034;49.444;7.758;2023-07-29T03:01:04;3.17;;;1.00;;
79570;SDS011;69034;49.444;7.758;2023-07-29T03:05:06;1.88;;;0.65;;
79570;SDS011;69034;49.444;7.758;2023-07-29T03:09:07;2.08;;;0.80;;
79570;SDS011;69034;49.444;7.758;2023-07-29T03:13:07;3.13;;;0.93;;
79570;SDS011;69034;49.444;7.758;2023-07-29T03:17:08;2.53;;;0.93;;
79570;SDS011;69034;49.444;7.758;2023-07-29T03:21:09;2.70;;;0.70;;
79570;SDS011;69034;49.444;7.758;2023-07-29T03:25:11;1.90;;;0.90;;
79570;SDS011;69034;49.444;7.758;2023-07-29T03:29:13;2.55;;;0.85;;
79570;SDS011;69034;49.444;7.758;2023-07-29T03:33:13;2.20;;;0.93;;
79570;SDS011;69034;49.444;7.758;2023-07-29T03:37:15;2.90;;;0.85;;
79570;SDS011;69034;49.444;7.758;2023-07-29T03:41:16;1.45;;;0.55;;
79570;SDS011;69034;49.444;7.758;2023-07-29T03:45:17;3.05;;;0.70;;
79570;SDS011;69034;49.444;7.758;2023-07-29T03:49:17;2.60;;;1.05;;
79570;SDS011;69034;49.444;7.758;2023-07-29T03:53:18;2.60;;;0.90;;
79570;SDS011;69034;49.444;7.758;2023-07-29T03:57:20;2.40;;;0.90;;
79570;SDS011;69034;49.444;7.758;2023-07-29T04:01:22;3.58;;;1.10;;
79570;SDS011;69034;49.444;7.758;2023-07-29T04:05:23;2.20;;;0.75;;
79570;SDS011;69034;49.444;7.758;2023-07-29T04:09:24;2.50;;;0.90;;
79570;SDS011;69034;49.444;7.758;2023-07-29T04:13:24;2.35;;;0.98;;
79570;SDS011;69034;49.444;7.758;2023-07-29T04:17:25;4.47;;;1.00;;
79570;SDS011;69034;49.444;7.758;2023-07-29T04:21:25;2.92;;;0.80;;
79570;SDS011;69034;49.444;7.758;2023-07-29T04:25:27;2.65;;;1.23;;
79570;SDS011;69034;49.444;7.758;2023-07-29T04:29:28;2.22;;;0.93;;
79570;SDS011;69034;49.444;7.758;2023-07-29T04:33:29;2.38;;;0.90;;
79570;SDS011;69034;49.444;7.758;2023-07-29T04:37:30;3.53;;;0.82;;
79570;SDS011;69034;49.444;7.758;2023-07-29T04:41:31;3.78;;;1.00;;
79570;SDS011;69034;49.444;7.758;2023-07-29T04:45:32;2.28;;;0.70;;
79570;SDS011;69034;49.444;7.758;2023-07-29T04:49:33;6.10;;;1.05;;
79570;SDS011;69034;49.444;7.758;2023-07-29T04:53:33;2.88;;;1.08;;
79570;SDS011;69034;49.444;7.758;2023-07-29T04:57:36;2.90;;;0.95;;
79570;SDS011;69034;49.444;7.758;2023-07-29T05:01:37;3.25;;;1.30;;
79570;SDS011;69034;49.444;7.758;2023-07-29T05:05:38;1.83;;;0.80;;
79570;SDS011;69034;49.444;7.758;2023-07-29T05:09:38;1.92;;;0.90;;
79570;SDS011;69034;49.444;7.758;2023-07-29T05:13:39;3.53;;;0.80;;
79570;SDS011;69034;49.444;7.758;2023-07-29T05:17:40;2.13;;;0.82;;
79570;SDS011;69034;49.444;7.758;2023-07-29T05:21:40;3.25;;;1.05;;
79570;SDS011;69034;49.444;7.758;2023-07-29T05:25:41;3.17;;;1.10;;
79570;SDS011;69034;49.444;7.758;2023-07-29T05:29:42;2.80;;;1.33;;
79570;SDS011;69034;49.444;7.758;2023-07-29T05:33:43;7.88;;;1.45;;
79570;SDS011;69034;49.444;7.758;2023-07-29T05:37:44;2.97;;;1.00;;
79570;SDS011;69034;49.444;7.758;2023-07-29T05:41:45;2.75;;;1.27;;
79570;SDS011;69034;49.444;7.758;2023-07-29T05:45:48;3.67;;;1.58;;
79570;SDS011;69034;49.444;7.758;2023-07-29T05:49:48;2.80;;;1.38;;
79570;SDS011;69034;49.444;7.758;2023-07-29T05:53:49;3.95;;;1.30;;
79570;SDS011;69034;49.444;7.758;2023-07-29T05:57:49;3.65;;;1.30;;
79570;SDS011;69034;49.444;7.758;2023-07-29T06:01:50;2.88;;;1.20;;
79570;SDS011;69034;49.444;7.758;2023-07-29T06:05:53;2.80;;;1.33;;
79570;SDS011;69034;49.444;7.758;2023-07-29T06:09:54;4.45;;;1.50;;
79570;SDS011;69034;49.444;7.758;2023-07-29T06:13:57;4.70;;;1.30;;
79570;SDS011;69034;49.444;7.758;2023-07-29T06:17:58;3.08;;;1.25;;
79570;SDS011;69034;49.444;7.758;2023-07-29T06:21:58;3.10;;;1.48;;
79570;SDS011;69034;49.444;7.758;2023-07-29T06:26:01;2.47;;;1.02;;
79570;SDS011;69034;49.444;7.758;2023-07-29T06:30:02;4.22;;;1.10;;
79570;SDS011;69034;49.444;7.758;2023-07-29T06:34:03;2.58;;;1.00;;
79570;SDS011;69034;49.444;7.758;2023-07-29T06:38:04;4.15;;;1.33;;
79570;SDS011;69034;49.444;7.758;2023-07-29T06:42:04;3.20;;;1.13;;
79570;SDS011;69034;49.444;7.758;2023-07-29T06:46:05;2.70;;;1.20;;
79570;SDS011;69034;49.444;7.758;2023-07-29T06:50:06;3.50;;;1.15;;
79570;SDS011;69034;49.444;7.758;2023-07-29T06:54:07;3.40;;;1.25;;
79570;SDS011;69034;49.444;7.758;2023-07-29T06:58:07;3.47;;;1.20;;
79570;SDS011;69034;49.444;7.758;2023-07-29T07:02:08;3.08;;;1.13;;
79570;SDS011;69034;49.444;7.758;2023-07-29T07:06:09;3.45;;;1.00;;
79570;SDS011;69034;49.444;7.758;2023-07-29T07:10:10;1.98;;;0.73;;
79570;SDS011;69034;49.444;7.758;2023-07-29T07:14:10;3.38;;;1.13;;
79570;SDS011;69034;49.444;7.758;2023-07-29T07:18:12;2.70;;;0.98;;
79570;SDS011;69034;49.444;7.758;2023-07-29T07:22:13;2.03;;;0.70;;
79570;SDS011;69034;49.444;7.758;2023-07-29T07:26:14;1.95;;;0.70;;
79570;SDS011;69034;49.444;7.758;2023-07-29T07:30:14;2.50;;;1.27;;
79570;SDS011;69034;49.444;7.758;2023-07-29T07:34:18;3.00;;;0.90;;
79570;SDS011;69034;49.444;7.758;2023-07-29T07:38:20;2.22;;;1.20;;
79570;SDS011;69034;49.444;7.758;2023-07-29T07:42:21;2.33;;;0.88;;
79570;SDS011;69034;49.444;7.758;2023-07-29T07:46:24;2.80;;;0.80;;
79570;SDS011;69034;49.444;7.758;2023-07-29T07:50:25;4.63;;;0.70;;
79570;SDS011;69034;49.444;7.758;2023-07-29T07:54:28;6.30;;;1.10;;
79570;SDS011;69034;49.444;7.758;2023-07-29T07:58:29;1.95;;;0.75;;
79570;SDS011;69034;49.444;7.758;2023-07-29T08:02:30;2.92;;;0.90;;
79570;SDS011;69034;49.444;7.758;2023-07-29T08:06:30;2.00;;;0.82;;
79570;SDS011;69034;49.444;7.758;2023-07-29T08:10:32;2.13;;;0.88;;
79570;SDS011;69034;49.444;7.758;2023-07-29T08:14:33;3.03;;;0.90;;
79570;SDS011;69034;49.444;7.758;2023-07-29T08:18:34;2.22;;;0.80;;
79570;SDS011;69034;49.444;7.758;2023-07-29T08:22:35;2.72;;;0.93;;
79570;SDS011;69034;49.444;7.758;2023-07-29T08:26:36;3.55;;;1.00;;
79570;SDS011;69034;49.444;7.758;2023-07-29T08:30:37;2.22;;;0.93;;
79570;SDS011;69034;49.444;7.758;2023-07-29T08:34:38;2.20;;;0.82;;
79570;SDS011;69034;49.444;7.758;2023-07-29T08:38:38;2.13;;;1.00;;
79570;SDS011;69034;49.444;7.758;2023-07-29T08:42:39;3.35;;;1.00;;
79570;SDS011;69034;49.444;7.758;2023-07-29T08:46:45;3.95;;;0.80;;
79570;SDS011;69034;49.444;7.758;2023-07-29T08:50:46;2.05;;;0.90;;
79570;SDS011;69034;49.444;7.758;2023-07-29T08:54:47;2.88;;;0.80;;
79570;SDS011;69034;49.444;7.758;2023-07-29T08:58:48;2.03;;;0.90;;
79570;SDS011;69034;49.444;7.758;2023-07-29T09:02:52;3.00;;;1.17;;
79570;SDS011;69034;49.444;7.758;2023-07-29T09:06:55;2.25;;;1.05;;
79570;SDS011;69034;49.444;7.758;2023-07-29T09:10:56;3.17;;;1.00;;
79570;SDS011;69034;49.444;7.758;2023-07-29T09:14:57;5.40;;;1.17;;
79570;SDS011;69034;49.444;7.758;2023-07-29T09:19:00;3.78;;;1.20;;
79570;SDS011;69034;49.444;7.758;2023-07-29T09:23:02;2.38;;;1.08;;
79570;SDS011;69034;49.444;7.758;2023-07-29T09:27:03;3.13;;;1.05;;
79570;SDS011;69034;49.444;7.758;2023-07-29T09:31:05;2.92;;;1.15;;
79570;SDS011;69034;49.444;7.758;2023-07-29T09:35:18;2.50;;;0.90;;
79570;SDS011;69034;49.444;7.758;2023-07-29T09:39:19;3.25;;;0.98;;
79570;SDS011;69034;49.444;7.758;2023-07-29T09:43:30;4.97;;;1.70;;
79570;SDS011;69034;49.444;7.758;2023-07-29T09:47:32;2.55;;;1.00;;
79570;SDS011;69034;49.444;7.758;2023-07-29T09:51:39;3.30;;;1.48;;
79570;SDS011;69034;49.444;7.758;2023-07-29T09:55:41;5.13;;;0.93;;
79570;SDS011;69034;49.444;7.758;2023-07-29T09:59:54;2.28;;;1.00;;
79570;SDS011;69034;49.444;7.758;2023-07-29T10:03:56;2.45;;;0.98;;
79570;SDS011;69034;49.444;7.758;2023-07-29T10:08:00;2.83;;;1.20;;
79570;SDS011;69034;49.444;7.758;2023-07-29T10:12:02;3.55;;;1.30;;
79570;SDS011;69034;49.444;7.758;2023-07-29T10:16:05;3.97;;;1.50;;
79570;SDS011;69034;49.444;7.758;2023-07-29T10:20:07;4.28;;;1.27;;
79570;SDS011;69034;49.444;7.758;2023-07-29T10:24:09;2.67;;;0.95;;
79570;SDS011;69034;49.444;7.758;2023-07-29T10:28:19;3.00;;;1.20;;
79570;SDS011;69034;49.444;7.758;2023-07-29T10:32:28;8.40;;;1.45;;
79570;SDS011;69034;49.444;7.758;2023-07-29T10:36:31;2.78;;;1.40;;
79570;SDS011;69034;49.444;7.758;2023-07-29T10:40:52;3.15;;;1.40;;
79570;SDS011;69034;49.444;7.758;2023-07-29T10:44:56;6.43;;;1.27;;
79570;SDS011;69034;49.444;7.758;2023-07-29T10:48:58;2.60;;;1.20;;
79570;SDS011;69034;49.444;7.758;2023-07-29T10:53:01;5.22;;;1.20;;
79570;SDS011;69034;49.444;7.758;2023-07-29T10:57:02;4.68;;;1.42;;
79570;SDS011;69034;49.444;7.758;2023-07-29T11:01:12;3.05;;;1.13;;
79570;SDS011;69034;49.444;7.758;2023-07-29T11:05:17;3.13;;;1.50;;
79570;SDS011;69034;49.444;7.758;2023-07-29T11:13:39;3.38;;;1.48;;
79570;SDS011;69034;49.444;7.758;2023-07-29T11:17:47;3.33;;;1.50;;
79570;SDS011;69034;49.444;7.758;2023-07-29T11:21:52;3.20;;;1.50;;
79570;SDS011;69034;49.444;7.758;2023-07-29T11:25:56;2.67;;;1.08;;
79570;SDS011;69034;49.444;7.758;2023-07-29T11:30:01;2.75;;;1.13;;
79570;SDS011;69034;49.444;7.758;2023-07-29T11:34:06;4.45;;;1.42;;
79570;SDS011;69034;49.444;7.758;2023-07-29T11:38:07;2.50;;;1.10;;
79570;SDS011;69034;49.444;7.758;2023-07-29T11:42:14;3.30;;;1.50;;
79570;SDS011;69034;49.444;7.758;2023-07-29T11:46:15;2.22;;;0.77;;
79570;SDS011;69034;49.444;7.758;2023-07-29T11:50:15;3.60;;;1.20;;
79570;SDS011;69034;49.444;7.758;2023-07-29T11:54:16;2.80;;;0.90;;
79570;SDS011;69034;49.444;7.758;2023-07-29T11:58:21;3.05;;;1.17;;
79570;SDS011;69034;49.444;7.758;2023-07-29T12:02:23;3.60;;;1.30;;
79570;SDS011;69034;49.444;7.758;2023-07-29T12:06:25;2.58;;;1.08;;
79570;SDS011;69034;49.444;7.758;2023-07-29T12:10:26;2.63;;;1.00;;
79570;SDS011;69034;49.444;7.758;2023-07-29T12:14:30;4.40;;;1.15;;
79570;SDS011;69034;49.444;7.758;2023-07-29T12:18:32;2.60;;;1.10;;
79570;SDS011;69034;49.444;7.758;2023-07-29T12:22:33;2.08;;;0.90;;
79570;SDS011;69034;49.444;7.758;2023-07-29T12:26:35;2.33;;;0.98;;
79570;SDS011;69034;49.444;7.758;2023-07-29T12:30:43;2.58;;;1.00;;
79570;SDS011;69034;49.444;7.758;2023-07-29T12:34:44;4.35;;;1.13;;
79570;SDS011;69034;49.444;7.758;2023-07-29T12:38:46;2.53;;;0.93;;
79570;SDS011;69034;49.444;7.758;2023-07-29T12:42:47;2.75;;;1.17;;
79570;SDS011;69034;49.444;7.758;2023-07-29T12:46:47;2.95;;;1.25;;
79570;SDS011;69034;49.444;7.758;2023-07-29T12:50:48;2.33;;;1.10;;
79570;SDS011;69034;49.444;7.758;2023-07-29T12:54:49;4.38;;;1.40;;
79570;SDS011;69034;49.444;7.758;2023-07-29T12:58:51;2.15;;;0.93;;
79570;SDS011;69034;49.444;7.758;2023-07-29T13:02:51;3.05;;;1.48;;
79570;SDS011;69034;49.444;7.758;2023-07-29T13:06:54;3.72;;;1.38;;
79570;SDS011;69034;49.444;7.758;2023-07-29T13:10:56;3.53;;;1.20;;
79570;SDS011;69034;49.444;7.758;2023-07-29T13:14:57;5.00;;;1.33;;
79570;SDS011;69034;49.444;7.758;2023-07-29T13:18:58;2.45;;;1.02;;
79570;SDS011;69034;49.444;7.758;2023-07-29T13:22:59;2.97;;;1.27;;
79570;SDS011;69034;49.444;7.758;2023-07-29T13:26:59;3.33;;;1.50;;
79570;SDS011;69034;49.444;7.758;2023-07-29T13:31:01;2.72;;;1.10;;
79570;SDS011;69034;49.444;7.758;2023-07-29T13:35:03;2.60;;;1.13;;
79570;SDS011;69034;49.444;7.758;2023-07-29T13:39:04;3.38;;;1.70;;
79570;SDS011;69034;49.444;7.758;2023-07-29T13:43:06;3.15;;;1.60;;
79570;SDS011;69034;49.444;7.758;2023-07-29T13:47:07;4.38;;;1.20;;
79570;SDS011;69034;49.444;7.758;2023-07-29T13:51:08;5.18;;;1.20;;
79570;SDS011;69034;49.444;7.758;2023-07-29T13:55:08;2.30;;;1.00;;
79570;SDS011;69034;49.444;7.758;2023-07-29T13:59:10;2.63;;;1.30;;
79570;SDS011;69034;49.444;7.758;2023-07-29T14:03:10;3.63;;;1.40;;
79570;SDS011;69034;49.444;7.758;2023-07-29T14:07:11;3.55;;;1.27;;
79570;SDS011;69034;49.444;7.758;2023-07-29T14:11:12;2.50;;;1.00;;
79570;SDS011;69034;49.444;7.758;2023-07-29T14:15:12;3.10;;;1.33;;
79570;SDS011;69034;49.444;7.758;2023-07-29T14:19:13;3.28;;;1.45;;
79570;SDS011;69034;49.444;7.758;2023-07-29T14:23:14;3.17;;;1.48;;
79570;SDS011;69034;49.444;7.758;2023-07-29T14:27:14;3.50;;;1.45;;
79570;SDS011;69034;49.444;7.758;2023-07-29T14:31:17;3.03;;;1.52;;
79570;SDS011;69034;49.444;7.758;2023-07-29T14:35:19;3.47;;;1.60;;
79570;SDS011;69034;49.444;7.758;2023-07-29T14:39:19;2.88;;;1.42;;
79570;SDS011;69034;49.444;7.758;2023-07-29T14:43:20;3.92;;;1.60;;
79570;SDS011;69034;49.444;7.758;2023-07-29T14:47:21;3.67;;;1.60;;
79570;SDS011;69034;49.444;7.758;2023-07-29T14:51:21;2.80;;;1.33;;
79570;SDS011;69034;49.444;7.758;2023-07-29T14:55:23;3.08;;;1.58;;
79570;SDS011;69034;49.444;7.758;2023-07-29T14:59:24;2.97;;;1.52;;
79570;SDS011;69034;49.444;7.758;2023-07-29T15:03:25;3.90;;;1.90;;
79570;SDS011;69034;49.444;7.758;2023-07-29T15:07:25;3.22;;;1.70;;
79570;SDS011;69034;49.444;7.758;2023-07-29T15:11:26;2.55;;;1.40;;
79570;SDS011;69034;49.444;7.758;2023-07-29T15:15:27;4.50;;;2.08;;
79570;SDS011;69034;49.444;7.758;2023-07-29T15:19:27;4.90;;;3.67;;
79570;SDS011;69034;49.444;7.758;2023-07-29T15:23:28;3.97;;;2.00;;
79570;SDS011;69034;49.444;7.758;2023-07-29T15:27:29;3.55;;;1.77;;
79570;SDS011;69034;49.444;7.758;2023-07-29T15:31:30;3.75;;;1.58;;
79570;SDS011;69034;49.444;7.758;2023-07-29T15:35:38;3.58;;;1.50;;
79570;SDS011;69034;49.444;7.758;2023-07-29T15:39:39;3.10;;;1.50;;
79570;SDS011;69034;49.444;7.758;2023-07-29T15:43:40;3.88;;;1.30;;
79570;SDS011;69034;49.444;7.758;2023-07-29T15:47:40;3.28;;;1.20;;
79570;SDS011;69034;49.444;7.758;2023-07-29T15:51:41;3.42;;;1.30;;
79570;SDS011;69034;49.444;7.758;2023-07-29T15:55:42;3.42;;;1.50;;
79570;SDS011;69034;49.444;7.758;2023-07-29T15:59:43;3.70;;;1.60;;
79570;SDS011;69034;49.444;7.758;2023-07-29T16:03:43;3.78;;;1.40;;
79570;SDS011;69034;49.444;7.758;2023-07-29T16:07:44;4.28;;;1.50;;
79570;SDS011;69034;49.444;7.758;2023-07-29T16:11:44;3.65;;;1.38;;
79570;SDS011;69034;49.444;7.758;2023-07-29T16:15:45;3.30;;;1.50;;
79570;SDS011;69034;49.444;7.758;2023-07-29T16:19:53;3.80;;;1.35;;
79570;SDS011;69034;49.444;7.758;2023-07-29T16:23:58;7.60;;;1.70;;
79570;SDS011;69034;49.444;7.758;2023-07-29T16:27:59;3.78;;;1.70;;
79570;SDS011;69034;49.444;7.758;2023-07-29T16:32:00;3.38;;;1.60;;
79570;SDS011;69034;49.444;7.758;2023-07-29T16:36:00;3.78;;;1.60;;
79570;SDS011;69034;49.444;7.758;2023-07-29T16:40:01;5.57;;;1.80;;
79570;SDS011;69034;49.444;7.758;2023-07-29T16:44:02;3.05;;;1.40;;
79570;SDS011;69034;49.444;7.758;2023-07-29T16:48:03;3.80;;;1.55;;
79570;SDS011;69034;49.444;7.758;2023-07-29T16:52:05;3.90;;;1.95;;
79570;SDS011;69034;49.444;7.758;2023-07-29T16:56:06;3.08;;;1.50;;
79570;SDS011;69034;49.444;7.758;2023-07-29T17:00:07;4.53;;;1.30;;
79570;SDS011;69034;49.444;7.758;2023-07-29T17:04:08;3.75;;;1.52;;
79570;SDS011;69034;49.444;7.758;2023-07-29T17:08:09;3.00;;;1.60;;
79570;SDS011;69034;49.444;7.758;2023-07-29T17:12:10;3.15;;;1.35;;
79570;SDS011;69034;49.444;7.758;2023-07-29T17:16:11;3.15;;;1.60;;
79570;SDS011;69034;49.444;7.758;2023-07-29T17:20:12;3.92;;;1.55;;
79570;SDS011;69034;49.444;7.758;2023-07-29T17:24:14;2.83;;;1.48;;
79570;SDS011;69034;49.444;7.758;2023-07-29T17:28:14;3.97;;;1.63;;
79570;SDS011;69034;49.444;7.758;2023-07-29T17:32:16;2.92;;;1.60;;
79570;SDS011;69034;49.444;7.758;2023-07-29T17:36:17;5.03;;;1.80;;
79570;SDS011;69034;49.444;7.758;2023-07-29T17:40:18;3.33;;;1.80;;
79570;SDS011;69034;49.444;7.758;2023-07-29T17:44:18;5.55;;;1.50;;
79570;SDS011;69034;49.444;7.758;2023-07-29T17:48:19;4.95;;;1.73;;
79570;SDS011;69034;49.444;7.758;2023-07-29T17:52:20;4.80;;;1.85;;
79570;SDS011;69034;49.444;7.758;2023-07-29T17:56:20;4.47;;;1.98;;
79570;SDS011;69034;49.444;7.758;2023-07-29T18:00:21;3.40;;;1.40;;
79570;SDS011;69034;49.444;7.758;2023-07-29T18:04:25;3.63;;;1.80;;
79570;SDS011;69034;49.444;7.758;2023-07-29T18:08:26;4.45;;;1.90;;
79570;SDS011;69034;49.444;7.758;2023-07-29T18:12:27;4.30;;;1.80;;
79570;SDS011;69034;49.444;7.758;2023-07-29T18:16:28;3.28;;;1.67;;
79570;SDS011;69034;49.444;7.758;2023-07-29T18:20:28;4.38;;;1.70;;
79570;SDS011;69034;49.444;7.758;2023-07-29T18:24:29;4.60;;;1.70;;
79570;SDS011;69034;49.444;7.758;2023-07-29T18:28:30;5.82;;;1.98;;
79570;SDS011;69034;49.444;7.758;2023-07-29T18:32:30;5.78;;;1.65;;
79570;SDS011;69034;49.444;7.758;2023-07-29T18:36:31;4.07;;;1.70;;
79570;SDS011;69034;49.444;7.758;2023-07-29T18:40:32;3.50;;;1.42;;
79570;SDS011;69034;49.444;7.758;2023-07-29T18:44:33;5.38;;;1.48;;
79570;SDS011;69034;49.444;7.758;2023-07-29T18:48:33;4.65;;;1.30;;
79570;SDS011;69034;49.444;7.758;2023-07-29T18:52:34;3.35;;;1.55;;
79570;SDS011;69034;49.444;7.758;2023-07-29T18:56:35;5.10;;;1.40;;
79570;SDS011;69034;49.444;7.758;2023-07-29T19:00:37;3.85;;;1.70;;
79570;SDS011;69034;49.444;7.758;2023-07-29T19:04:38;4.30;;;1.70;;
79570;SDS011;69034;49.444;7.758;2023-07-29T19:08:39;3.92;;;1.75;;
79570;SDS011;69034;49.444;7.758;2023-07-29T19:12:39;3.63;;;1.50;;
79570;SDS011;69034;49.444;7.758;2023-07-29T19:16:42;3.58;;;1.80;;
79570;SDS011;69034;49.444;7.758;2023-07-29T19:20:43;4.38;;;1.88;;
79570;SDS011;69034;49.444;7.758;2023-07-29T19:24:47;3.85;;;1.60;;
79570;SDS011;69034;49.444;7.758;2023-07-29T19:28:50;4.13;;;1.80;;
79570;SDS011;69034;49.444;7.758;2023-07-29T19:32:53;4.95;;;1.95;;
79570;SDS011;69034;49.444;7.758;2023-07-29T19:36:53;3.78;;;1.60;;
79570;SDS011;69034;49.444;7.758;2023-07-29T19:40:54;4.03;;;1.90;;
79570;SDS011;69034;49.444;7.758;2023-07-29T19:45:01;3.78;;;1.95;;
79570;SDS011;69034;49.444;7.758;2023-07-29T19:49:03;4.47;;;1.88;;
79570;SDS011;69034;49.444;7.758;2023-07-29T19:53:03;3.88;;;1.90;;
79570;SDS011;69034;49.444;7.758;2023-07-29T19:57:04;5.30;;;1.90;;
79570;SDS011;69034;49.444;7.758;2023-07-29T20:01:07;4.50;;;1.90;;
79570;SDS011;69034;49.444;7.758;2023-07-29T20:05:08;4.28;;;2.03;;
79570;SDS011;69034;49.444;7.758;2023-07-29T20:09:09;4.05;;;1.73;;
79570;SDS011;69034;49.444;7.758;2023-07-29T20:13:10;5.10;;;2.17;;
79570;SDS011;69034;49.444;7.758;2023-07-29T20:17:11;4.65;;;1.70;;
79570;SDS011;69034;49.444;7.758;2023-07-29T20:21:12;4.32;;;1.92;;
79570;SDS011;69034;49.444;7.758;2023-07-29T20:25:13;5.15;;;1.88;;
79570;SDS011;69034;49.444;7.758;2023-07-29T20:29:13;4.57;;;1.90;;
79570;SDS011;69034;49.444;7.758;2023-07-29T20:33:14;5.57;;;2.17;;
79570;SDS011;69034;49.444;7.758;2023-07-29T20:37:15;3.90;;;1.90;;
79570;SDS011;69034;49.444;7.758;2023-07-29T20:41:16;4.00;;;1.90;;
79570;SDS011;69034;49.444;7.758;2023-07-29T20:45:19;3.58;;;1.70;;
79570;SDS011;69034;49.444;7.758;2023-07-29T20:49:20;4.13;;;1.58;;
79570;SDS011;69034;49.444;7.758;2023-07-29T20:53:20;4.88;;;1.70;;
79570;SDS011;69034;49.444;7.758;2023-07-29T20:57:21;5.15;;;1.90;;
79570;SDS011;69034;49.444;7.758;2023-07-29T21:01:22;3.63;;;1.60;;
79570;SDS011;69034;49.444;7.758;2023-07-29T21:05:23;2.83;;;1.30;;
79570;SDS011;69034;49.444;7.758;2023-07-29T21:09:27;4.90;;;1.30;;
79570;SDS011;69034;49.444;7.758;2023-07-29T21:13:29;2.25;;;0.85;;
79570;SDS011;69034;49.444;7.758;2023-07-29T21:17:29;3.75;;;1.05;;
79570;SDS011;69034;49.444;7.758;2023-07-29T21:21:30;2.08;;;0.80;;
79570;SDS011;69034;49.444;7.758;2023-07-29T21:25:31;1.20;;;0.55;;
79570;SDS011;69034;49.444;7.758;2023-07-29T21:29:32;2.28;;;0.70;;
79570;SDS011;69034;49.444;7.758;2023-07-29T21:33:33;3.33;;;0.68;;
79570;SDS011;69034;49.444;7.758;2023-07-29T21:37:34;1.27;;;0.52;;
79570;SDS011;69034;49.444;7.758;2023-07-29T21:41:35;2.42;;;0.70;;
79570;SDS011;69034;49.444;7.758;2023-07-29T21:45:36;1.10;;;0.52;;
79570;SDS011;69034;49.444;7.758;2023-07-29T21:49:37;2.05;;;0.60;;
79570;SDS011;69034;49.444;7.758;2023-07-29T21:53:37;1.80;;;0.35;;
79570;SDS011;69034;49.444;7.758;2023-07-29T21:57:39;1.83;;;0.65;;
79570;SDS011;69034;49.444;7.758;2023-07-29T22:01:39;2.17;;;0.68;;
79570;SDS011;69034;49.444;7.758;2023-07-29T22:05:40;2.55;;;0.50;;
79570;SDS011;69034;49.444;7.758;2023-07-29T22:09:40;1.83;;;0.50;;
79570;SDS011;69034;49.444;7.758;2023-07-29T22:13:41;1.85;;;0.70;;
79570;SDS011;69034;49.444;7.758;2023-07-29T22:17:42;1.90;;;0.73;;
79570;SDS011;69034;49.444;7.758;2023-07-29T22:21:43;1.98;;;0.50;;
79570;SDS011;69034;49.444;7.758;2023-07-29T22:25:53;1.42;;;0.47;;
79570;SDS011;69034;49.444;7.758;2023-07-29T22:30:07;1.08;;;0.40;;
79570;SDS011;69034;49.444;7.758;2023-07-29T22:34:08;1.33;;;0.55;;
79570;SDS011;69034;49.444;7.758;2023-07-29T22:38:08;4.50;;;0.85;;
79570;SDS011;69034;49.444;7.758;2023-07-29T22:42:09;1.77;;;0.70;;
79570;SDS011;69034;49.444;7.758;2023-07-29T22:46:10;1.80;;;0.60;;
79570;SDS011;69034;49.444;7.758;2023-07-29T22:50:14;1.63;;;0.57;;
79570;SDS011;69034;49.444;7.758;2023-07-29T22:54:14;1.90;;;0.57;;
79570;SDS011;69034;49.444;7.758;2023-07-29T22:58:17;1.88;;;0.70;;
79570;SDS011;69034;49.444;7.758;2023-07-29T23:02:19;0.98;;;0.50;;
79570;SDS011;69034;49.444;7.758;2023-07-29T23:06:21;3.58;;;0.73;;
79570;SDS011;69034;49.444;7.758;2023-07-29T23:10:21;2.35;;;0.60;;
79570;SDS011;69034;49.444;7.758;2023-07-29T23:14:22;1.98;;;0.73;;
79570;SDS011;69034;49.444;7.758;2023-07-29T23:18:25;1.15;;;0.43;;
79570;SDS011;69034;49.444;7.758;2023-07-29T23:22:26;2.55;;;0.85;;
79570;SDS011;69034;49.444;7.758;2023-07-29T23:26:27;2.72;;;0.90;;
79570;SDS011;69034;49.444;7.758;2023-07-29T23:30:27;1.45;;;0.50;;
79570;SDS011;69034;49.444;7.758;2023-07-29T23:34:28;2.65;;;0.70;;
79570;SDS011;69034;49.444;7.758;2023-07-29T23:38:29;2.97;;;0.70;;
79570;SDS011;69034;49.444;7.758;2023-07-29T23:42:29;2.35;;;0.75;;
79570;SDS011;69034;49.444;7.758;2023-07-29T23:46:30;1.33;;;0.60;;
79570;SDS011;69034;49.444;7.758;2023-07-29T23:50:31;1.70;;;0.55;;
79570;SDS011;69034;49.444;7.758;2023-07-29T23:54:31;1.60;;;0.63;;
79570;SDS011;69034;49.444;7.758;2023-07-29T23:58:32;2.17;;;0.77;;
